createdAt,value
2017-10-21T00:00:49.515Z,100.00
2017-10-21T00:01:59.638Z,100.00
2017-10-21T00:03:08.469Z,100.00
2017-10-21T00:04:18.432Z,100.00
2017-10-21T00:05:27.325Z,100.00
2017-10-21T00:06:36.857Z,100.00
2017-10-21T00:07:46.359Z,100.00
2017-10-21T00:08:56.240Z,100.00
2017-10-21T00:10:05.101Z,100.00
2017-10-21T00:11:14.546Z,100.00
2017-10-21T00:12:24.004Z,100.00
2017-10-21T00:13:33.527Z,100.00
2017-10-21T00:14:42.970Z,100.00
2017-10-21T00:15:52.466Z,100.00
2017-10-21T00:17:01.810Z,100.00
2017-10-21T00:18:11.339Z,100.00
2017-10-21T00:19:20.789Z,100.00
2017-10-21T00:20:30.129Z,100.00
2017-10-21T00:21:39.626Z,100.00
2017-10-21T00:22:49.053Z,100.00
2017-10-21T00:23:59.178Z,100.00
2017-10-21T00:25:07.919Z,100.00
2017-10-21T00:26:17.440Z,100.00
2017-10-21T00:27:26.868Z,100.00
2017-10-21T00:28:36.301Z,100.00
2017-10-21T00:29:45.753Z,100.00
2017-10-21T00:30:55.181Z,100.00
2017-10-21T00:32:04.683Z,100.00
2017-10-21T00:33:14.081Z,100.00
2017-10-21T00:34:23.567Z,100.00
2017-10-21T00:35:32.991Z,100.00
2017-10-21T00:36:42.498Z,100.00
2017-10-21T00:37:51.898Z,100.00
2017-10-21T00:39:01.487Z,100.00
2017-10-21T00:40:11.806Z,100.00
2017-10-21T00:41:20.273Z,100.00
2017-10-21T00:42:29.741Z,100.00
2017-10-21T00:43:39.272Z,100.00
2017-10-21T00:44:48.670Z,100.00
2017-10-21T00:45:58.128Z,100.00
2017-10-21T00:47:07.557Z,100.00
2017-10-21T00:48:17.086Z,100.00
2017-10-21T00:49:26.698Z,100.00
2017-10-21T00:50:36.456Z,100.00
2017-10-21T00:51:45.381Z,100.00
2017-10-21T00:52:54.836Z,100.00
2017-10-21T00:54:04.290Z,100.00
2017-10-21T00:55:13.784Z,100.00
2017-10-21T00:56:24.211Z,100.00
2017-10-21T00:57:32.715Z,100.00
2017-10-21T00:58:42.143Z,100.00
2017-10-21T00:59:51.617Z,100.00
2017-10-21T01:01:01.048Z,100.00
2017-10-21T01:02:10.514Z,100.00
2017-10-21T01:03:20.059Z,100.00
2017-10-21T01:04:29.454Z,100.00
2017-10-21T01:05:38.917Z,100.00
2017-10-21T01:06:48.365Z,100.00
2017-10-21T01:07:57.817Z,100.00
2017-10-21T01:09:07.272Z,100.00
2017-10-21T01:10:16.759Z,100.00
2017-10-21T01:11:26.259Z,100.00
2017-10-21T01:12:35.692Z,100.00
2017-10-21T01:13:45.134Z,100.00
2017-10-21T01:14:54.663Z,100.00
2017-10-21T01:16:04.589Z,100.00
2017-10-21T01:17:13.604Z,100.00
2017-10-21T01:18:23.033Z,100.00
2017-10-21T01:19:32.492Z,100.00
2017-10-21T01:20:41.913Z,100.00
2017-10-21T01:21:51.365Z,100.00
2017-10-21T01:23:00.927Z,100.00
2017-10-21T01:24:10.316Z,100.00
2017-10-21T01:25:19.781Z,100.00
2017-10-21T01:26:29.235Z,100.00
2017-10-21T01:27:38.692Z,100.00
2017-10-21T01:28:48.154Z,100.00
2017-10-21T01:29:57.641Z,100.00
2017-10-21T01:31:08.074Z,100.00
2017-10-21T01:32:16.546Z,100.00
2017-10-21T01:33:26.013Z,100.00
2017-10-21T01:34:36.068Z,100.00
2017-10-21T01:35:44.940Z,100.00
2017-10-21T01:36:54.497Z,100.00
2017-10-21T01:38:03.876Z,100.00
2017-10-21T01:39:13.355Z,100.00
2017-10-21T01:40:22.832Z,100.00
2017-10-21T01:41:32.312Z,100.00
2017-10-21T01:42:41.746Z,100.00
2017-10-21T01:43:51.271Z,100.00
2017-10-21T01:45:00.727Z,100.00
2017-10-21T01:46:10.127Z,100.00
2017-10-21T01:47:19.599Z,100.00
2017-10-21T01:48:29.088Z,100.00
2017-10-21T01:49:38.630Z,100.00
2017-10-21T01:50:48.045Z,100.00
2017-10-21T01:51:57.473Z,100.00
2017-10-21T01:53:06.920Z,100.00
2017-10-21T01:54:16.381Z,100.00
2017-10-21T01:55:25.874Z,100.00
2017-10-21T01:56:36.310Z,100.00
2017-10-21T01:57:44.782Z,100.00
2017-10-21T01:58:54.346Z,100.00
2017-10-21T02:00:03.959Z,100.00
2017-10-21T02:01:13.204Z,100.00
2017-10-21T02:02:22.738Z,100.00
2017-10-21T02:03:32.162Z,100.00
2017-10-21T02:04:41.611Z,100.00
2017-10-21T02:05:51.049Z,100.00
2017-10-21T02:07:00.517Z,100.00
2017-10-21T02:08:10.488Z,100.00
2017-10-21T02:09:19.506Z,100.00
2017-10-21T02:10:28.961Z,100.00
2017-10-21T02:11:38.400Z,100.00
2017-10-21T02:12:47.969Z,100.00
2017-10-21T02:13:57.428Z,100.00
2017-10-21T02:15:07.035Z,100.00
2017-10-21T02:16:16.298Z,100.00
2017-10-21T02:17:25.757Z,100.00
2017-10-21T02:18:35.340Z,100.00
2017-10-21T02:19:44.782Z,100.00
2017-10-21T02:20:54.202Z,100.00
2017-10-21T02:22:03.726Z,100.00
2017-10-21T02:23:13.119Z,100.00
2017-10-21T02:24:22.690Z,100.00
2017-10-21T02:25:32.129Z,100.00
2017-10-21T02:26:41.545Z,100.00
2017-10-21T02:27:51.584Z,100.00
2017-10-21T02:29:00.501Z,100.00
2017-10-21T02:30:10.560Z,100.00
2017-10-21T02:31:19.430Z,100.00
2017-10-21T02:32:28.988Z,100.00
2017-10-21T02:33:38.416Z,100.00
2017-10-21T02:34:47.879Z,100.00
2017-10-21T02:35:57.376Z,100.00
2017-10-21T02:37:06.807Z,100.00
2017-10-21T02:38:16.269Z,100.00
2017-10-21T02:39:25.739Z,100.00
2017-10-21T02:40:35.308Z,100.00
2017-10-21T02:41:44.676Z,100.00
2017-10-21T02:42:54.154Z,100.00
2017-10-21T02:44:03.679Z,100.00
2017-10-21T02:45:13.131Z,100.00
2017-10-21T02:46:22.637Z,100.00
2017-10-21T02:47:32.000Z,100.00
2017-10-21T02:48:41.494Z,100.00
2017-10-21T02:49:50.945Z,100.00
2017-10-21T02:51:00.379Z,100.00
2017-10-21T02:52:09.880Z,100.00
2017-10-21T02:53:19.309Z,100.00
2017-10-21T02:54:28.837Z,100.00
2017-10-21T02:55:38.963Z,100.00
2017-10-21T02:56:47.700Z,100.00
2017-10-21T02:57:57.133Z,100.00
2017-10-21T02:59:06.654Z,100.00
2017-10-21T03:00:16.059Z,100.00
2017-10-21T03:01:25.512Z,100.00
2017-10-21T03:02:35.038Z,100.00
2017-10-21T03:03:45.390Z,100.00
2017-10-21T03:04:53.913Z,100.00
2017-10-21T03:06:03.296Z,100.00
2017-10-21T03:07:12.753Z,100.00
2017-10-21T03:08:22.280Z,100.00
2017-10-21T03:09:31.631Z,100.00
2017-10-21T03:10:41.160Z,100.00
2017-10-21T03:11:50.572Z,100.00
2017-10-21T03:13:00.509Z,100.00
2017-10-21T03:14:09.424Z,100.00
2017-10-21T03:15:18.876Z,100.00
2017-10-21T03:16:28.383Z,100.00
2017-10-21T03:17:37.725Z,100.00
2017-10-21T03:18:48.161Z,100.00
2017-10-21T03:19:56.681Z,100.00
2017-10-21T03:21:06.095Z,100.00
2017-10-21T03:22:15.468Z,100.00
2017-10-21T03:23:24.952Z,100.00
2017-10-21T03:24:34.338Z,100.00
2017-10-21T03:25:43.821Z,100.00
2017-10-21T03:26:53.242Z,100.00
2017-10-21T03:28:02.622Z,100.00
2017-10-21T03:29:12.088Z,100.00
2017-10-21T03:30:21.494Z,100.00
2017-10-21T03:31:30.950Z,100.00
2017-10-21T03:32:40.321Z,100.00
2017-10-21T03:33:49.801Z,100.00
2017-10-21T03:34:59.246Z,100.00
2017-10-21T03:36:08.658Z,100.00
2017-10-21T03:37:18.085Z,100.00
2017-10-21T03:38:27.512Z,100.00
2017-10-21T03:39:36.940Z,100.00
2017-10-21T03:40:46.341Z,100.00
2017-10-21T03:41:55.797Z,100.00
2017-10-21T03:43:05.230Z,100.00
2017-10-21T03:44:14.602Z,100.00
2017-10-21T03:45:24.055Z,100.00
2017-10-21T03:46:33.457Z,100.00
2017-10-21T03:47:42.939Z,100.00
2017-10-21T03:48:52.365Z,100.00
2017-10-21T03:50:01.766Z,100.00
2017-10-21T03:51:11.221Z,100.00
2017-10-21T03:52:20.650Z,100.00
2017-10-21T03:53:30.024Z,100.00
2017-10-21T03:54:39.452Z,100.00
2017-10-21T03:55:48.952Z,100.00
2017-10-21T03:56:58.361Z,100.00
2017-10-21T03:58:07.866Z,100.00
2017-10-21T03:59:17.186Z,100.00
2017-10-21T04:00:26.633Z,100.00
2017-10-21T04:01:36.042Z,100.00
2017-10-21T04:02:45.479Z,100.00
2017-10-21T04:03:54.932Z,100.00
2017-10-21T04:05:04.389Z,100.00
2017-10-21T04:06:13.798Z,100.00
2017-10-21T04:07:23.238Z,100.00
2017-10-21T04:08:32.743Z,100.00
2017-10-21T04:09:42.175Z,100.00
2017-10-21T04:10:51.789Z,100.00
2017-10-21T04:12:01.106Z,100.00
2017-10-21T04:13:10.462Z,100.00
2017-10-21T04:14:19.890Z,100.00
2017-10-21T04:15:29.337Z,100.00
2017-10-21T04:16:38.746Z,100.00
2017-10-21T04:17:48.273Z,100.00
2017-10-21T04:18:58.625Z,100.00
2017-10-21T04:20:07.314Z,100.00
2017-10-21T04:21:16.517Z,100.00
2017-10-21T04:22:25.956Z,100.00
2017-10-21T04:23:35.487Z,100.00
2017-10-21T04:24:44.844Z,100.00
2017-10-21T04:25:54.393Z,100.00
2017-10-21T04:27:03.875Z,100.00
2017-10-21T04:28:13.304Z,100.00
2017-10-21T04:29:22.731Z,100.00
2017-10-21T04:30:32.105Z,100.00
2017-10-21T04:31:41.517Z,100.00
2017-10-21T04:32:51.041Z,100.00
2017-10-21T04:34:00.470Z,100.00
2017-10-21T04:35:09.919Z,100.00
2017-10-21T04:36:19.293Z,100.00
2017-10-21T04:37:28.753Z,100.00
2017-10-21T04:38:38.283Z,100.00
2017-10-21T04:39:47.646Z,100.00
2017-10-21T04:40:57.324Z,100.00
2017-10-21T04:42:06.566Z,100.00
2017-10-21T04:43:16.200Z,100.00
2017-10-21T04:44:25.438Z,100.00
2017-10-21T04:45:34.916Z,100.00
2017-10-21T04:46:44.347Z,100.00
2017-10-21T04:47:53.817Z,100.00
2017-10-21T04:49:03.341Z,100.00
2017-10-21T04:50:13.027Z,100.00
2017-10-21T04:51:22.196Z,100.00
2017-10-21T04:52:31.633Z,100.00
2017-10-21T04:53:41.076Z,100.00
2017-10-21T04:54:50.582Z,100.00
2017-10-21T04:56:00.196Z,100.00
2017-10-21T04:57:09.544Z,100.00
2017-10-21T04:58:18.911Z,100.00
2017-10-21T04:59:28.363Z,100.00
2017-10-21T05:00:37.848Z,100.00
2017-10-21T05:01:47.284Z,100.00
2017-10-21T05:02:56.737Z,100.00
2017-10-21T05:04:06.213Z,100.00
2017-10-21T05:05:15.760Z,100.00
2017-10-21T05:06:25.173Z,100.00
2017-10-21T05:07:34.600Z,100.00
2017-10-21T05:08:44.042Z,100.00
2017-10-21T05:09:53.525Z,100.00
2017-10-21T05:11:03.519Z,100.00
2017-10-21T05:12:12.516Z,100.00
2017-10-21T05:13:21.944Z,100.00
2017-10-21T05:14:31.886Z,100.00
2017-10-21T05:15:40.918Z,100.00
2017-10-21T05:16:50.331Z,100.00
2017-10-21T05:17:59.760Z,100.00
2017-10-21T05:19:09.288Z,100.00
2017-10-21T05:20:18.736Z,100.00
2017-10-21T05:21:28.221Z,100.00
2017-10-21T05:22:37.673Z,100.00
2017-10-21T05:23:47.112Z,100.00
2017-10-21T05:24:56.533Z,100.00
2017-10-21T05:26:06.001Z,100.00
2017-10-21T05:27:15.440Z,100.00
2017-10-21T05:28:24.917Z,100.00
2017-10-21T05:29:34.350Z,100.00
2017-10-21T05:30:43.837Z,100.00
2017-10-21T05:31:53.307Z,100.00
2017-10-21T05:33:02.737Z,100.00
2017-10-21T05:34:12.346Z,100.00
2017-10-21T05:35:21.665Z,100.00
2017-10-21T05:36:31.122Z,100.00
2017-10-21T05:37:41.162Z,100.00
2017-10-21T05:38:50.079Z,100.00
2017-10-21T05:39:59.507Z,100.00
2017-10-21T05:41:09.052Z,100.00
2017-10-21T05:42:18.415Z,100.00
2017-10-21T05:43:27.892Z,100.00
2017-10-21T05:44:37.337Z,100.00
2017-10-21T05:45:46.817Z,100.00
2017-10-21T05:46:56.281Z,100.00
2017-10-21T05:48:05.712Z,100.00
2017-10-21T05:49:15.239Z,100.00
2017-10-21T05:50:24.851Z,100.00
2017-10-21T05:51:34.106Z,100.00
2017-10-21T05:52:43.627Z,100.00
2017-10-21T05:53:53.021Z,100.00
2017-10-21T05:55:02.483Z,100.00
2017-10-21T05:56:11.972Z,100.00
2017-10-21T05:57:21.439Z,100.00
2017-10-21T05:58:30.969Z,100.00
2017-10-21T05:59:40.343Z,100.00
2017-10-21T06:00:49.842Z,100.00
2017-10-21T06:01:59.358Z,100.00
2017-10-21T06:03:08.783Z,100.00
2017-10-21T06:04:18.178Z,100.00
2017-10-21T06:05:27.758Z,100.00
2017-10-21T06:06:37.107Z,100.00
2017-10-21T06:07:46.576Z,100.00
2017-10-21T06:08:56.132Z,100.00
2017-10-21T06:10:05.637Z,100.00
2017-10-21T06:11:14.983Z,100.00
2017-10-21T06:12:24.429Z,100.00
2017-10-21T06:13:33.943Z,100.00
2017-10-21T06:14:43.345Z,100.00
2017-10-21T06:15:52.918Z,100.00
2017-10-21T06:17:02.330Z,100.00
2017-10-21T06:18:11.759Z,100.00
2017-10-21T06:19:21.289Z,100.00
2017-10-21T06:20:30.901Z,100.00
2017-10-21T06:21:40.147Z,100.00
2017-10-21T06:22:49.675Z,100.00
2017-10-21T06:23:59.075Z,100.00
2017-10-21T06:25:08.642Z,100.00
2017-10-21T06:26:18.039Z,100.00
2017-10-21T06:27:27.595Z,100.00
2017-10-21T06:28:37.019Z,100.00
2017-10-21T06:29:46.447Z,100.00
2017-10-21T06:30:55.939Z,100.00
2017-10-21T06:32:05.408Z,100.00
2017-10-21T06:33:14.943Z,100.00
2017-10-21T06:34:24.366Z,100.00
2017-10-21T06:35:34.082Z,100.00
2017-10-21T06:36:43.325Z,100.00
2017-10-21T06:37:52.855Z,100.00
2017-10-21T06:39:02.295Z,100.00
2017-10-21T06:40:11.813Z,100.00
2017-10-21T06:41:21.277Z,100.00
2017-10-21T06:42:30.771Z,100.00
2017-10-21T06:43:40.238Z,100.00
2017-10-21T06:44:49.740Z,100.00
2017-10-21T06:45:59.240Z,100.00
2017-10-21T06:47:08.799Z,100.00
2017-10-21T06:48:18.220Z,100.00
2017-10-21T06:49:27.751Z,100.00
2017-10-21T06:50:37.297Z,100.00
2017-10-21T06:51:46.686Z,100.00
2017-10-21T06:52:56.173Z,100.00
2017-10-21T06:54:05.672Z,100.00
2017-10-21T06:55:15.149Z,100.00
2017-10-21T06:56:24.742Z,100.00
2017-10-21T06:57:34.159Z,100.00
2017-10-21T06:58:43.684Z,100.00
2017-10-21T06:59:53.114Z,100.00
2017-10-21T07:01:02.631Z,100.00
2017-10-21T07:02:12.075Z,100.00
2017-10-21T07:03:21.612Z,100.00
2017-10-21T07:04:31.132Z,100.00
2017-10-21T07:05:40.577Z,100.00
2017-10-21T07:06:50.093Z,100.00
2017-10-21T07:07:59.519Z,100.00
2017-10-21T07:09:09.048Z,100.00
2017-10-21T07:10:18.477Z,100.00
2017-10-21T07:11:28.025Z,100.00
2017-10-21T07:12:37.539Z,100.00
2017-10-21T07:13:46.930Z,100.00
2017-10-21T07:14:56.426Z,100.00
2017-10-21T07:16:06.110Z,100.00
2017-10-21T07:17:15.409Z,100.00
2017-10-21T07:18:24.985Z,100.00
2017-10-21T07:19:34.490Z,100.00
2017-10-21T07:20:43.919Z,100.00
2017-10-21T07:21:53.988Z,100.00
2017-10-21T07:23:02.928Z,100.00
2017-10-21T07:24:12.397Z,100.00
2017-10-21T07:25:21.906Z,100.00
2017-10-21T07:26:31.511Z,100.00
2017-10-21T07:27:40.927Z,100.00
2017-10-21T07:28:50.530Z,100.00
2017-10-21T07:29:59.985Z,100.00
2017-10-21T07:31:09.477Z,100.00
2017-10-21T07:32:18.964Z,100.00
2017-10-21T07:33:28.583Z,100.00
2017-10-21T07:34:38.002Z,100.00
2017-10-21T07:35:47.531Z,100.00
2017-10-21T07:36:57.064Z,100.00
2017-10-21T07:38:06.548Z,100.00
2017-10-21T07:39:16.126Z,100.00
2017-10-21T07:40:25.587Z,100.00
2017-10-21T07:41:35.202Z,100.00
2017-10-21T07:42:44.628Z,100.00
2017-10-21T07:43:54.157Z,100.00
2017-10-21T07:45:03.851Z,100.00
2017-10-21T07:46:13.323Z,100.00
2017-10-21T07:47:22.740Z,100.00
2017-10-21T07:48:32.274Z,100.00
2017-10-21T07:49:41.973Z,100.00
2017-10-21T07:50:51.445Z,100.00
2017-10-21T07:52:00.966Z,100.00
2017-10-21T07:53:10.491Z,100.00
2017-10-21T07:54:20.022Z,100.00
2017-10-21T07:55:29.550Z,100.00
2017-10-21T07:56:39.099Z,100.00
2017-10-21T07:57:48.613Z,100.00
2017-10-21T07:58:58.078Z,100.00
2017-10-21T08:00:08.184Z,100.00
2017-10-21T08:01:17.226Z,100.00
2017-10-21T08:02:26.733Z,100.00
2017-10-21T08:03:36.265Z,100.00
2017-10-21T08:04:45.796Z,100.00
2017-10-21T08:05:55.353Z,100.00
2017-10-21T08:07:04.866Z,100.00
2017-10-21T08:08:14.415Z,100.00
2017-10-21T08:09:24.019Z,100.00
2017-10-21T08:10:33.514Z,100.00
2017-10-21T08:11:43.102Z,100.00
2017-10-21T08:12:52.620Z,100.00
2017-10-21T08:14:02.171Z,100.00
2017-10-21T08:15:11.724Z,100.00
2017-10-21T08:16:21.325Z,100.00
2017-10-21T08:17:30.839Z,100.00
2017-10-21T08:18:40.403Z,100.00
2017-10-21T08:19:49.997Z,100.00
2017-10-21T08:20:59.551Z,100.00
2017-10-21T08:22:10.083Z,100.00
2017-10-21T08:23:18.656Z,100.00
2017-10-21T08:24:28.325Z,100.00
2017-10-21T08:25:38.369Z,100.00
2017-10-21T08:26:47.389Z,100.00
2017-10-21T08:27:57.019Z,100.00
2017-10-21T08:29:06.514Z,100.00
2017-10-21T08:30:16.100Z,100.00
2017-10-21T08:31:25.735Z,100.00
2017-10-21T08:32:35.345Z,100.00
2017-10-21T08:33:44.876Z,100.00
2017-10-21T08:34:54.423Z,100.00
2017-10-21T08:36:04.066Z,100.00
2017-10-21T08:37:13.670Z,100.00
2017-10-21T08:38:23.235Z,100.00
2017-10-21T08:39:33.013Z,100.00
2017-10-21T08:40:42.468Z,100.00
2017-10-21T08:41:52.088Z,100.00
2017-10-21T08:43:01.684Z,100.00
2017-10-21T08:44:11.366Z,100.00
2017-10-21T08:45:20.941Z,100.00
2017-10-21T08:46:30.597Z,100.00
2017-10-21T08:47:40.210Z,100.00
2017-10-21T08:48:49.897Z,100.00
2017-10-21T08:50:00.042Z,100.00
2017-10-21T08:51:09.179Z,100.00
2017-10-21T08:52:18.897Z,100.00
2017-10-21T08:53:28.532Z,100.00
2017-10-21T08:54:38.165Z,100.00
2017-10-21T08:55:47.797Z,100.00
2017-10-21T08:56:57.459Z,100.00
2017-10-21T08:58:07.575Z,100.00
2017-10-21T08:59:16.796Z,100.00
2017-10-21T09:00:26.432Z,100.00
2017-10-21T09:01:36.049Z,100.00
2017-10-21T09:02:45.696Z,100.00
2017-10-21T09:03:55.431Z,100.00
2017-10-21T09:05:05.148Z,100.00
2017-10-21T09:06:14.690Z,100.00
2017-10-21T09:07:24.336Z,100.00
2017-10-21T09:08:34.577Z,100.00
2017-10-21T09:09:43.775Z,100.00
2017-10-21T09:10:53.331Z,100.00
2017-10-21T09:12:03.082Z,100.00
2017-10-21T09:13:12.659Z,100.00
2017-10-21T09:14:22.331Z,100.00
2017-10-21T09:15:32.069Z,100.00
2017-10-21T09:16:42.396Z,100.00
2017-10-21T09:17:51.409Z,100.00
2017-10-21T09:19:01.478Z,100.00
2017-10-21T09:20:10.701Z,100.00
2017-10-21T09:21:20.294Z,100.00
2017-10-21T09:22:29.922Z,100.00
2017-10-21T09:23:40.076Z,100.00
2017-10-21T09:24:49.245Z,100.00
2017-10-21T09:25:58.913Z,100.00
2017-10-21T09:27:08.623Z,100.00
2017-10-21T09:28:18.268Z,100.00
2017-10-21T09:29:27.978Z,100.00
2017-10-21T09:30:37.702Z,100.00
2017-10-21T09:31:47.336Z,100.00
2017-10-21T09:32:57.659Z,100.00
2017-10-21T09:34:06.885Z,100.00
2017-10-21T09:35:16.441Z,100.00
2017-10-21T09:36:26.198Z,100.00
2017-10-21T09:37:35.781Z,100.00
2017-10-21T09:38:46.469Z,100.00
2017-10-21T09:39:55.177Z,100.00
2017-10-21T09:41:04.846Z,100.00
2017-10-21T09:42:14.728Z,100.00
2017-10-21T09:43:24.226Z,100.00
2017-10-21T09:44:33.913Z,100.00
2017-10-21T09:45:43.590Z,100.00
2017-10-21T09:46:53.310Z,100.00
2017-10-21T09:48:02.966Z,100.00
2017-10-21T09:49:12.751Z,100.00
2017-10-21T09:50:22.384Z,100.00
2017-10-21T09:51:32.136Z,100.00
2017-10-21T09:52:41.752Z,100.00
2017-10-21T09:53:51.434Z,100.00
2017-10-21T09:55:01.135Z,100.00
2017-10-21T09:56:10.834Z,100.00
2017-10-21T09:57:20.575Z,100.00
2017-10-21T09:58:30.242Z,100.00
2017-10-21T09:59:39.960Z,100.00
2017-10-21T10:00:50.718Z,100.00
2017-10-21T10:01:59.392Z,100.00
2017-10-21T10:03:09.172Z,100.00
2017-10-21T10:04:18.796Z,100.00
2017-10-21T10:05:28.499Z,100.00
2017-10-21T10:06:38.214Z,100.00
2017-10-21T10:07:48.003Z,100.00
2017-10-21T10:08:57.601Z,100.00
2017-10-21T10:10:07.374Z,100.00
2017-10-21T10:11:17.022Z,100.00
2017-10-21T10:12:26.739Z,100.00
2017-10-21T10:13:36.475Z,100.00
2017-10-21T10:14:46.215Z,100.00
2017-10-21T10:15:55.846Z,100.00
2017-10-21T10:17:05.568Z,100.00
2017-10-21T10:18:15.313Z,100.00
2017-10-21T10:19:25.046Z,100.00
2017-10-21T10:20:34.783Z,100.00
2017-10-21T10:21:44.948Z,100.00
2017-10-21T10:22:54.156Z,100.00
2017-10-21T10:24:03.891Z,100.00
2017-10-21T10:25:13.574Z,100.00
2017-10-21T10:26:23.291Z,100.00
2017-10-21T10:27:33.110Z,100.00
2017-10-21T10:28:42.802Z,100.00
2017-10-21T10:29:52.536Z,100.00
2017-10-21T10:31:02.196Z,100.00
2017-10-21T10:32:11.858Z,100.00
2017-10-21T10:33:21.567Z,100.00
2017-10-21T10:34:31.299Z,100.00
2017-10-21T10:35:41.035Z,100.00
2017-10-21T10:36:50.713Z,100.00
2017-10-21T10:38:00.505Z,100.00
2017-10-21T10:39:10.144Z,100.00
2017-10-21T10:40:19.949Z,100.00
2017-10-21T10:41:29.562Z,100.00
2017-10-21T10:42:39.294Z,100.00
2017-10-21T10:43:49.004Z,100.00
2017-10-21T10:44:58.788Z,100.00
2017-10-21T10:46:08.447Z,100.00
2017-10-21T10:47:18.198Z,100.00
2017-10-21T10:48:27.817Z,100.00
2017-10-21T10:49:37.549Z,100.00
2017-10-21T10:50:47.285Z,100.00
2017-10-21T10:51:57.036Z,100.00
2017-10-21T10:53:06.755Z,100.00
2017-10-21T10:54:16.387Z,100.00
2017-10-21T10:55:26.109Z,100.00
2017-10-21T10:56:35.860Z,100.00
2017-10-21T10:57:45.593Z,100.00
2017-10-21T10:58:55.331Z,100.00
2017-10-21T11:00:05.015Z,100.00
2017-10-21T11:01:14.800Z,100.00
2017-10-21T11:02:24.794Z,100.00
2017-10-21T11:03:34.198Z,100.00
2017-10-21T11:04:43.935Z,100.00
2017-10-21T11:05:53.742Z,100.00
2017-10-21T11:07:04.004Z,99.88
2017-10-21T11:08:13.290Z,98.63
2017-10-21T11:09:22.945Z,97.50
2017-10-21T11:10:32.687Z,97.10
2017-10-21T11:11:42.462Z,96.63
2017-10-21T11:12:52.254Z,96.24
2017-10-21T11:14:01.996Z,95.58
2017-10-21T11:15:11.754Z,96.45
2017-10-21T11:16:21.567Z,97.12
2017-10-21T11:17:31.419Z,95.94
2017-10-21T11:18:41.082Z,96.04
2017-10-21T11:19:50.876Z,96.44
2017-10-21T11:21:00.709Z,95.89
2017-10-21T11:22:11.213Z,95.97
2017-10-21T11:23:20.282Z,95.56
2017-10-21T11:24:30.018Z,96.26
2017-10-21T11:25:40.780Z,96.79
2017-10-21T11:26:49.614Z,96.68
2017-10-21T11:27:59.348Z,96.68
2017-10-21T11:29:09.115Z,98.45
2017-10-21T11:30:18.876Z,100.00
2017-10-21T11:31:28.734Z,100.00
2017-10-21T11:32:38.441Z,100.00
2017-10-21T11:33:48.205Z,100.00
2017-10-21T11:34:57.943Z,100.00
2017-10-21T11:36:07.689Z,100.00
2017-10-21T11:37:17.464Z,100.00
2017-10-21T11:38:27.250Z,100.00
2017-10-21T11:39:36.934Z,100.00
2017-10-21T11:40:46.680Z,100.00
2017-10-21T11:41:56.454Z,100.00
2017-10-21T11:43:06.196Z,100.00
2017-10-21T11:44:15.926Z,100.00
2017-10-21T11:45:25.665Z,100.00
2017-10-21T11:46:35.381Z,100.00
2017-10-21T11:47:45.316Z,100.00
2017-10-21T11:48:54.944Z,100.00
2017-10-21T11:50:04.603Z,100.00
2017-10-21T11:51:14.337Z,100.00
2017-10-21T11:52:24.260Z,100.00
2017-10-21T11:53:33.811Z,100.00
2017-10-21T11:54:43.542Z,100.00
2017-10-21T11:55:53.278Z,100.00
2017-10-21T11:57:03.095Z,100.00
2017-10-21T11:58:12.615Z,100.00
2017-10-21T11:59:22.292Z,100.00
2017-10-21T12:00:32.089Z,100.00
2017-10-21T12:01:41.698Z,100.00
2017-10-21T12:02:51.416Z,100.00
2017-10-21T12:04:01.080Z,100.00
2017-10-21T12:05:10.851Z,100.00
2017-10-21T12:06:20.494Z,100.00
2017-10-21T12:07:30.407Z,100.00
2017-10-21T12:08:39.871Z,100.00
2017-10-21T12:09:49.563Z,100.00
2017-10-21T12:10:59.253Z,100.00
2017-10-21T12:12:09.142Z,100.00
2017-10-21T12:13:18.692Z,100.00
2017-10-21T12:14:28.328Z,100.00
2017-10-21T12:15:38.021Z,100.00
2017-10-21T12:16:47.706Z,100.00
2017-10-21T12:17:57.422Z,100.00
2017-10-21T12:19:07.093Z,100.00
2017-10-21T12:20:16.805Z,100.00
2017-10-21T12:21:26.531Z,100.00
2017-10-21T12:22:36.349Z,100.00
2017-10-21T12:23:45.827Z,100.00
2017-10-21T12:24:55.609Z,100.00
2017-10-21T12:26:05.865Z,100.00
2017-10-21T12:27:14.888Z,100.00
2017-10-21T12:28:24.542Z,100.00
2017-10-21T12:29:34.345Z,100.00
2017-10-21T12:30:43.907Z,100.00
2017-10-21T12:31:53.574Z,100.00
2017-10-21T12:33:03.272Z,100.00
2017-10-21T12:34:13.930Z,100.00
2017-10-21T12:35:22.618Z,100.00
2017-10-21T12:36:32.374Z,100.00
2017-10-21T12:37:42.007Z,100.00
2017-10-21T12:38:51.742Z,100.00
2017-10-21T12:40:01.375Z,100.00
2017-10-21T12:41:11.010Z,100.00
2017-10-21T12:42:20.766Z,100.00
2017-10-21T12:43:30.394Z,100.00
2017-10-21T12:44:40.038Z,100.00
2017-10-21T12:45:49.743Z,100.00
2017-10-21T12:46:59.520Z,100.00
2017-10-21T12:48:09.105Z,100.00
2017-10-21T12:49:18.757Z,100.00
2017-10-21T12:50:28.441Z,100.00
2017-10-21T12:51:38.701Z,100.00
2017-10-21T12:52:47.866Z,100.00
2017-10-21T12:53:57.493Z,100.00
2017-10-21T12:55:07.218Z,100.00
2017-10-21T12:56:16.951Z,100.00
2017-10-21T12:57:26.613Z,100.00
2017-10-21T12:58:36.323Z,100.00
2017-10-21T12:59:46.009Z,100.00
2017-10-21T13:00:55.737Z,100.00
2017-10-21T13:02:05.526Z,100.00
2017-10-21T13:03:15.284Z,100.00
2017-10-21T13:04:24.892Z,100.00
2017-10-21T13:05:34.628Z,100.00
2017-10-21T13:06:44.317Z,100.00
2017-10-21T13:07:54.059Z,100.00
2017-10-21T13:09:04.347Z,100.00
2017-10-21T13:10:13.473Z,100.00
2017-10-21T13:11:23.278Z,100.00
2017-10-21T13:12:32.961Z,100.00
2017-10-21T13:13:42.619Z,100.00
2017-10-21T13:14:52.408Z,100.00
2017-10-21T13:16:02.143Z,100.00
2017-10-21T13:17:11.896Z,100.00
2017-10-21T13:18:21.614Z,100.00
2017-10-21T13:19:31.246Z,100.00
2017-10-21T13:20:40.981Z,100.00
2017-10-21T13:21:50.716Z,100.00
2017-10-21T13:23:00.429Z,100.00
2017-10-21T13:24:10.189Z,100.00
2017-10-21T13:25:19.849Z,100.00
2017-10-21T13:26:29.659Z,100.00
2017-10-21T13:27:39.323Z,100.00
2017-10-21T13:28:49.029Z,100.00
2017-10-21T13:29:59.304Z,100.00
2017-10-21T13:31:08.573Z,100.00
2017-10-21T13:32:18.928Z,100.00
2017-10-21T13:33:27.921Z,100.00
2017-10-21T13:34:37.701Z,100.00
2017-10-21T13:35:47.437Z,100.00
2017-10-21T13:36:57.172Z,100.00
2017-10-21T13:38:06.822Z,100.00
2017-10-21T13:39:16.500Z,100.00
2017-10-21T13:40:26.582Z,100.00
2017-10-21T13:41:35.938Z,100.00
2017-10-21T13:42:45.676Z,100.00
2017-10-21T13:43:55.354Z,100.00
2017-10-21T13:45:05.070Z,100.00
2017-10-21T13:46:14.850Z,100.00
2017-10-21T13:47:24.768Z,100.00
2017-10-21T13:48:34.233Z,100.00
2017-10-21T13:49:43.951Z,100.00
2017-10-21T13:50:53.689Z,100.00
2017-10-21T13:52:03.425Z,100.00
2017-10-21T13:53:13.189Z,100.00
2017-10-21T13:54:22.854Z,100.00
2017-10-21T13:55:32.631Z,100.00
2017-10-21T13:56:42.292Z,100.00
2017-10-21T13:57:52.283Z,100.00
2017-10-21T13:59:01.748Z,100.00
2017-10-21T14:00:11.484Z,100.00
2017-10-21T14:01:21.307Z,100.00
2017-10-21T14:02:31.001Z,100.00
2017-10-21T14:03:40.775Z,100.00
2017-10-21T14:04:50.478Z,100.00
2017-10-21T14:06:00.248Z,100.00
2017-10-21T14:07:09.994Z,100.00
2017-10-21T14:08:19.777Z,100.00
2017-10-21T14:09:29.504Z,100.00
2017-10-21T14:10:39.269Z,100.00
2017-10-21T14:11:49.128Z,100.00
2017-10-21T14:12:58.823Z,100.00
2017-10-21T14:14:08.598Z,100.00
2017-10-21T14:15:18.335Z,100.00
2017-10-21T14:16:28.172Z,100.00
2017-10-21T14:17:37.849Z,100.00
2017-10-21T14:18:47.648Z,100.00
2017-10-21T14:19:57.382Z,100.00
2017-10-21T14:21:07.045Z,100.00
2017-10-21T14:22:16.853Z,100.00
2017-10-21T14:23:26.534Z,100.00
2017-10-21T14:24:36.394Z,100.00
2017-10-21T14:25:45.982Z,100.00
2017-10-21T14:26:55.865Z,100.00
2017-10-21T14:28:05.468Z,100.00
2017-10-21T14:29:15.262Z,100.00